Aérodrome :
LOGIN :

S'inscrire | Disclaimer

   EN    FR    IT 

 










Légende :    VFR   VFR Marginal   IFR   IFR Intensif   IFR Très Intensif
Visi : 
Plafond : 
>= 8 km
>= 3000ft
5 à 8 km
1000 à 3000 ft
1500m à 5 km
500 à 1000 ft
800 à 1500m
200 à 500 ft
< 800m
< 200 ft
Symboles :   Orages  Brouillard  Fortes neiges  Fortes précipitations  Vent > 20 kt
SIGMETs :   Divers  Orages  Givrage  Turbulence  Onde Orograph.  Cendres Volcan.







- Altitude de l'aérodrome : 270 ft
- Code IATA : OXF
- Voir les cartes d'approche


EGTK - Oxford (Kidlington)

DERNIER METAR :
  • 242050Z 25013KT 7000 -RA FEW006 SCT007 BKN008 12/11 Q1007

METARs EXPIRÉS :
  • 242020Z 22015KT 4000 RA FEW006 SCT011 BKN015 12/11 Q1006
  • 241950Z 22014KT 9999 SCT011 BKN014 BKN017 12/11 Q1006
  • 241920Z 21013KT 9999 BKN010 OVC014 12/11 Q1006
  • 241850Z 22013KT 6000 SCT012 BKN015 OVC018 13/11 Q1007
  • 241820Z 21013KT 9999 FEW012 SCT016 BKN019 13/11 Q1007

TAF TAF EGTK
Valide du 24 à 18h jusqu'au 24 à 22h UTC


241703Z 2418/2422 22008KT 9999 SCT018
TEMPO 2418/2422 7000 -RA BKN008
PROB30
TEMPO 2418/2422 3000 RA BKN004
Pas de NOTAMs connus pour ce terrain.



MET'MAP, la Météo Aéronautique d'un coup d'oeil ! - Copyright ORBIFLY Décembre 2007 - Disclaimer

ORBIFLY MET'MAP TEAM :

Programmation & Développement : Alexandra Zaïnal
Conception & Développement : Baudouin d'Aumeries
Co-Programmation & Développement : Marc-Olivier Méhu
Soutien technique & logistique : Manuel Goepfert

Contact : metmap@orbifly.com




SOURCES & CREDITS :

   NOAA